createdAt,value
2023-04-29T00:01:59.399Z,14.60
2023-04-29T00:04:30.263Z,14.60
2023-04-29T00:07:22.926Z,14.60
2023-04-29T00:10:18.805Z,14.60
2023-04-29T00:12:57.710Z,14.50
2023-04-29T00:15:29.768Z,14.50
2023-04-29T00:18:25.551Z,14.50
2023-04-29T00:21:14.620Z,14.50
2023-04-29T00:24:13.000Z,14.50
2023-04-29T00:27:00.181Z,14.50
2023-04-29T00:29:46.633Z,14.50
2023-04-29T00:32:27.760Z,14.50
2023-04-29T00:35:11.926Z,14.40
2023-04-29T00:37:54.764Z,14.40
2023-04-29T00:40:25.522Z,14.40
2023-04-29T00:42:59.100Z,14.40
2023-04-29T00:45:37.294Z,14.40
2023-04-29T00:48:12.748Z,14.40
2023-04-29T00:51:09.808Z,14.40
2023-04-29T00:53:56.999Z,14.40
2023-04-29T00:56:44.604Z,14.40
2023-04-29T00:59:32.378Z,14.40
2023-04-29T01:02:32.813Z,14.40
2023-04-29T01:05:10.832Z,14.50
2023-04-29T01:08:21.445Z,14.50
2023-04-29T01:11:17.231Z,14.40
2023-04-29T01:14:02.275Z,14.40
2023-04-29T01:16:43.606Z,14.50
2023-04-29T01:19:48.998Z,14.50
2023-04-29T01:22:40.719Z,14.50
2023-04-29T01:25:32.378Z,14.50
2023-04-29T01:29:06.747Z,14.50
2023-04-29T01:31:52.574Z,14.50
2023-04-29T01:34:37.481Z,14.40
2023-04-29T01:37:28.710Z,14.50
2023-04-29T01:40:21.877Z,14.50
2023-04-29T01:43:22.523Z,14.40
2023-04-29T01:46:24.707Z,14.50
2023-04-29T01:49:29.299Z,14.40
2023-04-29T01:52:09.827Z,14.50
2023-04-29T01:54:55.410Z,14.40
2023-04-29T01:57:31.340Z,14.40
2023-04-29T02:00:25.964Z,14.40
2023-04-29T02:03:14.299Z,14.40
2023-04-29T02:05:54.442Z,14.40
2023-04-29T02:08:39.291Z,14.40
2023-04-29T02:11:14.939Z,14.40
2023-04-29T02:13:46.266Z,14.40
2023-04-29T02:16:29.911Z,14.40
2023-04-29T02:19:25.302Z,14.40
2023-04-29T02:22:27.371Z,14.40
2023-04-29T02:25:24.989Z,14.40
2023-04-29T02:28:08.588Z,14.40
2023-04-29T02:30:57.379Z,14.50
2023-04-29T02:33:41.707Z,14.40
2023-04-29T02:36:15.233Z,14.40
2023-04-29T02:38:47.147Z,14.40
2023-04-29T02:41:29.027Z,14.40
2023-04-29T02:44:01.603Z,14.30
2023-04-29T02:46:36.733Z,14.30
2023-04-29T02:49:16.354Z,14.30
2023-04-29T02:51:52.271Z,14.30
2023-04-29T02:54:28.180Z,14.30
2023-04-29T02:57:25.987Z,14.20
2023-04-29T03:00:17.011Z,14.20
2023-04-29T03:03:09.834Z,14.20
2023-04-29T03:06:24.759Z,14.10
2023-04-29T03:08:59.706Z,14.10
2023-04-29T03:11:30.493Z,14.10
2023-04-29T03:14:15.159Z,14.00
2023-04-29T03:16:56.762Z,14.00
2023-04-29T03:19:32.116Z,13.90
2023-04-29T03:22:25.890Z,13.90
2023-04-29T03:24:56.105Z,13.80
2023-04-29T03:27:51.419Z,13.80
2023-04-29T03:30:21.725Z,13.70
2023-04-29T03:33:11.989Z,13.70
2023-04-29T03:35:54.826Z,13.70
2023-04-29T03:39:11.189Z,13.70
2023-04-29T03:41:49.902Z,13.60
2023-04-29T03:44:38.105Z,13.60
2023-04-29T03:47:27.133Z,13.60
2023-04-29T03:50:24.434Z,13.60
2023-04-29T03:53:12.626Z,13.60
2023-04-29T03:56:04.082Z,13.60
2023-04-29T03:58:43.446Z,13.50
2023-04-29T04:01:40.055Z,13.50
2023-04-29T04:04:24.083Z,13.30
2023-04-29T04:07:12.901Z,13.50
2023-04-29T04:10:13.678Z,13.50
2023-04-29T04:13:17.650Z,13.50
2023-04-29T04:15:59.114Z,13.50
2023-04-29T04:18:36.092Z,13.40
2023-04-29T04:21:11.561Z,13.40
2023-04-29T04:24:10.029Z,13.40
2023-04-29T04:26:58.915Z,13.50
2023-04-29T04:29:43.188Z,13.50
2023-04-29T04:32:19.796Z,13.50
2023-04-29T04:34:50.194Z,13.60
2023-04-29T04:37:36.646Z,13.60
2023-04-29T04:40:12.431Z,13.60
2023-04-29T04:43:01.911Z,13.60
2023-04-29T04:45:58.694Z,13.60
2023-04-29T04:48:41.974Z,13.70
2023-04-29T04:51:31.891Z,13.70
2023-04-29T04:54:34.175Z,13.70
2023-04-29T04:57:28.720Z,13.80
2023-04-29T05:00:20.874Z,13.80
2023-04-29T05:03:17.474Z,13.80
2023-04-29T05:05:56.551Z,13.90
2023-04-29T05:08:29.852Z,13.90
2023-04-29T05:11:21.503Z,13.90
2023-04-29T05:14:25.827Z,14.00
2023-04-29T05:17:10.031Z,14.00
2023-04-29T05:19:52.378Z,14.10
2023-04-29T05:22:42.151Z,14.10
2023-04-29T05:25:31.144Z,14.20
2023-04-29T05:28:27.564Z,14.20
2023-04-29T05:31:03.599Z,14.30
2023-04-29T05:33:45.184Z,14.30
2023-04-29T05:36:32.216Z,14.30
2023-04-29T05:39:06.395Z,14.40
2023-04-29T05:41:38.545Z,14.40
2023-04-29T05:44:28.587Z,14.40
2023-04-29T05:47:51.131Z,14.50
2023-04-29T05:50:32.552Z,14.50
2023-04-29T05:53:35.378Z,14.50
2023-04-29T05:56:08.815Z,14.60
2023-04-29T05:58:40.534Z,14.60
2023-04-29T06:01:33.221Z,14.60
2023-04-29T06:04:10.597Z,14.70
2023-04-29T06:07:14.011Z,14.70
2023-04-29T06:10:28.131Z,14.80
2023-04-29T06:13:41.483Z,14.80
2023-04-29T06:16:28.953Z,14.90
2023-04-29T06:19:00.875Z,14.90
2023-04-29T06:21:49.967Z,14.90
2023-04-29T06:24:38.931Z,15.00
2023-04-29T06:27:25.967Z,15.00
2023-04-29T06:30:14.694Z,15.00
2023-04-29T06:32:46.946Z,15.10
2023-04-29T06:35:31.538Z,15.10
2023-04-29T06:38:24.983Z,15.10
2023-04-29T06:41:24.130Z,15.20
2023-04-29T06:44:12.785Z,15.20
2023-04-29T06:47:20.528Z,15.20
2023-04-29T06:50:14.423Z,15.30
2023-04-29T06:53:05.367Z,15.30
2023-04-29T06:56:00.204Z,15.30
2023-04-29T06:58:37.000Z,15.40
2023-04-29T07:01:29.814Z,15.40
2023-04-29T07:04:05.912Z,15.40
2023-04-29T07:06:37.341Z,15.40
2023-04-29T07:09:18.846Z,15.50
2023-04-29T07:12:00.930Z,15.50
2023-04-29T07:14:54.091Z,15.50
2023-04-29T07:17:33.077Z,15.60
2023-04-29T07:20:22.603Z,15.60
2023-04-29T07:23:12.300Z,15.60
2023-04-29T07:26:02.923Z,15.60
2023-04-29T07:28:57.450Z,15.60
2023-04-29T07:31:44.811Z,15.60
2023-04-29T07:34:34.893Z,15.60
2023-04-29T07:37:32.560Z,15.70
2023-04-29T07:40:08.455Z,15.70
2023-04-29T07:42:43.247Z,15.80
2023-04-29T07:45:19.309Z,15.80
2023-04-29T07:47:51.130Z,15.90
2023-04-29T07:50:39.874Z,15.90
2023-04-29T07:53:18.544Z,16.00
2023-04-29T07:55:49.548Z,16.00
2023-04-29T07:58:22.136Z,16.10
2023-04-29T08:01:21.810Z,16.20
2023-04-29T08:04:01.456Z,16.20
2023-04-29T08:06:45.188Z,16.30
2023-04-29T08:09:41.046Z,16.40
2023-04-29T08:12:29.454Z,16.40
2023-04-29T08:15:25.431Z,16.50
2023-04-29T08:17:57.217Z,16.50
2023-04-29T08:20:34.144Z,16.50
2023-04-29T08:23:37.370Z,16.50
2023-04-29T08:26:14.542Z,16.60
2023-04-29T08:28:45.693Z,16.60
2023-04-29T08:31:26.320Z,16.70
2023-04-29T08:33:56.435Z,16.70
2023-04-29T08:36:25.932Z,16.80
2023-04-29T08:39:02.046Z,16.90
2023-04-29T08:41:44.565Z,16.90
2023-04-29T08:44:18.752Z,16.90
2023-04-29T08:46:54.259Z,16.90
2023-04-29T08:49:36.961Z,16.90
2023-04-29T08:52:09.657Z,16.90
2023-04-29T08:54:48.765Z,17.00
2023-04-29T08:57:40.089Z,17.00
2023-04-29T09:00:21.803Z,17.10
2023-04-29T09:02:58.195Z,17.10
2023-04-29T09:05:32.613Z,17.20
2023-04-29T09:08:30.149Z,17.10
2023-04-29T09:11:10.484Z,17.10
2023-04-29T09:14:02.822Z,17.10
2023-04-29T09:16:34.207Z,17.10
2023-04-29T09:19:05.590Z,17.00
2023-04-29T09:21:56.790Z,17.00
2023-04-29T09:24:30.708Z,17.00
2023-04-29T09:27:03.643Z,17.00
2023-04-29T09:30:04.792Z,17.00
2023-04-29T09:32:41.596Z,17.00
2023-04-29T09:35:30.328Z,17.00
2023-04-29T09:38:15.495Z,17.10
2023-04-29T09:41:02.575Z,17.10
2023-04-29T09:43:53.671Z,17.10
2023-04-29T09:46:27.082Z,17.20
2023-04-29T09:49:09.330Z,17.20
2023-04-29T09:52:02.580Z,17.30
2023-04-29T09:54:44.112Z,17.30
2023-04-29T09:57:45.229Z,17.40
2023-04-29T10:00:30.510Z,17.50
2023-04-29T10:03:14.054Z,17.60
2023-04-29T10:06:02.652Z,17.70
2023-04-29T10:08:47.511Z,17.80
2023-04-29T10:11:20.581Z,17.90
2023-04-29T10:13:58.284Z,18.00
2023-04-29T10:16:54.396Z,18.00
2023-04-29T10:19:40.685Z,18.10
2023-04-29T10:22:40.109Z,18.10
2023-04-29T10:25:17.536Z,18.10
2023-04-29T10:28:00.257Z,18.00
2023-04-29T10:30:49.781Z,18.00
2023-04-29T10:33:28.218Z,17.90
2023-04-29T10:36:01.314Z,17.90
2023-04-29T10:38:52.316Z,17.80
2023-04-29T10:41:47.283Z,17.80
2023-04-29T10:44:23.079Z,17.80
2023-04-29T10:47:31.412Z,17.70
2023-04-29T10:50:20.302Z,17.70
2023-04-29T10:52:59.607Z,17.70
2023-04-29T10:55:32.281Z,17.80
2023-04-29T10:58:08.415Z,17.80
2023-04-29T11:00:41.769Z,17.90
2023-04-29T11:03:55.789Z,17.90
2023-04-29T11:06:48.105Z,18.00
2023-04-29T11:09:28.505Z,18.00
2023-04-29T11:12:15.873Z,18.00
2023-04-29T11:15:02.128Z,18.00
2023-04-29T11:17:43.150Z,18.00
2023-04-29T11:20:25.465Z,18.00
2023-04-29T11:23:18.385Z,18.00
2023-04-29T11:26:07.699Z,17.90
2023-04-29T11:28:52.230Z,17.90
2023-04-29T11:31:37.996Z,17.90
2023-04-29T11:34:18.796Z,18.00
2023-04-29T11:37:04.959Z,18.00
2023-04-29T11:40:03.891Z,18.10
2023-04-29T11:42:39.675Z,18.10
2023-04-29T11:45:24.267Z,18.10
2023-04-29T11:48:16.222Z,18.20
2023-04-29T11:50:55.762Z,18.30
2023-04-29T11:53:58.856Z,18.50
2023-04-29T11:56:56.410Z,18.50
2023-04-29T11:59:39.654Z,18.50
2023-04-29T12:02:21.496Z,18.60
2023-04-29T12:05:03.926Z,18.70
2023-04-29T12:07:39.897Z,18.70
2023-04-29T12:10:36.003Z,18.80
2023-04-29T12:13:50.480Z,18.80
2023-04-29T12:16:44.576Z,18.80
2023-04-29T12:19:17.221Z,18.90
2023-04-29T12:21:54.363Z,18.90
2023-04-29T12:24:34.478Z,19.00
2023-04-29T12:27:11.180Z,19.00
2023-04-29T12:29:53.446Z,19.10
2023-04-29T12:32:37.154Z,19.10
2023-04-29T12:35:35.623Z,19.20
2023-04-29T12:38:27.934Z,19.30
2023-04-29T12:41:25.940Z,19.40
2023-04-29T12:44:14.695Z,19.50
2023-04-29T12:47:28.865Z,19.60
2023-04-29T12:50:13.917Z,19.80
2023-04-29T12:53:09.157Z,19.80
2023-04-29T12:55:41.267Z,19.80
2023-04-29T12:58:14.336Z,19.60
2023-04-29T13:00:56.555Z,19.50
2023-04-29T13:04:00.506Z,19.40
2023-04-29T13:06:41.492Z,19.30
2023-04-29T13:09:32.024Z,19.20
2023-04-29T13:12:13.991Z,19.10
2023-04-29T13:14:58.084Z,19.10
2023-04-29T13:17:45.608Z,19.10
2023-04-29T13:20:41.382Z,19.10
2023-04-29T13:23:31.100Z,19.10
2023-04-29T13:26:25.101Z,19.10
2023-04-29T13:28:56.788Z,19.00
2023-04-29T13:31:34.627Z,19.00
2023-04-29T13:34:14.199Z,19.00
2023-04-29T13:36:50.234Z,18.90
2023-04-29T13:39:38.138Z,18.90
2023-04-29T13:42:26.252Z,18.90
2023-04-29T13:45:08.452Z,18.90
2023-04-29T13:48:03.073Z,18.90
2023-04-29T13:51:26.455Z,18.90
2023-04-29T13:54:29.333Z,19.00
2023-04-29T14:02:25.615Z,19.20
2023-04-29T14:05:07.365Z,19.50
2023-04-29T14:08:03.119Z,19.90
2023-04-29T14:10:46.514Z,20.20
2023-04-29T14:13:29.848Z,20.50
2023-04-29T14:16:08.294Z,20.90
2023-04-29T14:18:53.939Z,21.10
2023-04-29T14:21:29.950Z,21.20
2023-04-29T14:24:04.121Z,21.10
2023-04-29T14:26:47.342Z,21.00
2023-04-29T14:29:35.886Z,20.90
2023-04-29T14:32:19.157Z,20.70
2023-04-29T14:35:05.213Z,20.50
2023-04-29T14:37:53.711Z,20.30
2023-04-29T14:40:33.757Z,20.20
2023-04-29T14:43:29.411Z,20.00
2023-04-29T14:46:09.944Z,19.80
2023-04-29T14:48:46.610Z,19.70
2023-04-29T14:51:33.270Z,19.50
2023-04-29T14:54:23.167Z,19.40
2023-04-29T14:57:01.380Z,19.30
2023-04-29T14:59:52.952Z,19.20
2023-04-29T15:02:46.025Z,19.10
2023-04-29T15:05:20.043Z,19.00
2023-04-29T15:08:10.223Z,18.80
2023-04-29T15:10:53.743Z,18.80
2023-04-29T15:13:52.756Z,18.70
2023-04-29T15:16:36.441Z,18.50
2023-04-29T15:19:17.599Z,18.50
2023-04-29T15:21:49.737Z,18.40
2023-04-29T15:24:20.914Z,18.40
2023-04-29T15:27:03.538Z,18.30
2023-04-29T15:29:44.185Z,18.30
2023-04-29T15:32:39.361Z,18.30
2023-04-29T15:35:14.292Z,18.20
2023-04-29T15:38:02.032Z,18.10
2023-04-29T15:40:49.192Z,18.10
2023-04-29T15:43:22.164Z,18.10
2023-04-29T15:46:07.315Z,18.10
2023-04-29T15:49:12.923Z,18.00
2023-04-29T15:51:57.110Z,18.00
2023-04-29T15:54:40.566Z,18.00
2023-04-29T15:57:25.958Z,18.00
2023-04-29T16:00:23.493Z,17.90
2023-04-29T16:02:53.808Z,17.90
2023-04-29T16:05:59.912Z,17.90
2023-04-29T16:08:48.494Z,17.90
2023-04-29T16:11:19.233Z,17.90
2023-04-29T16:14:15.732Z,17.90
2023-04-29T16:17:08.251Z,17.90
2023-04-29T16:19:43.610Z,17.90
2023-04-29T16:22:20.041Z,17.90
2023-04-29T16:24:57.493Z,18.00
2023-04-29T16:27:31.470Z,18.00
2023-04-29T16:30:18.126Z,18.10
2023-04-29T16:33:11.064Z,18.20
2023-04-29T16:35:56.974Z,18.20
2023-04-29T16:39:27.484Z,18.20
2023-04-29T16:41:59.922Z,18.20
2023-04-29T16:44:43.436Z,18.30
2023-04-29T16:47:15.076Z,18.30
2023-04-29T16:50:01.135Z,18.30
2023-04-29T16:52:44.598Z,18.30
2023-04-29T16:55:50.455Z,18.20
2023-04-29T16:58:34.159Z,18.20
2023-04-29T17:01:33.452Z,18.20
2023-04-29T17:04:20.979Z,18.20
2023-04-29T17:07:09.986Z,18.10
2023-04-29T17:09:48.732Z,18.10
2023-04-29T17:12:36.699Z,18.10
2023-04-29T17:15:15.377Z,18.00
2023-04-29T17:18:04.680Z,18.00
2023-04-29T17:21:20.973Z,18.00
2023-04-29T17:23:57.188Z,18.00
2023-04-29T17:26:48.273Z,17.90
2023-04-29T17:29:50.451Z,17.90
2023-04-29T17:32:28.739Z,17.80
2023-04-29T17:35:29.506Z,17.80
2023-04-29T17:38:15.999Z,17.80
2023-04-29T17:41:12.102Z,17.70
2023-04-29T17:43:44.384Z,17.70
2023-04-29T17:46:30.153Z,17.60
2023-04-29T17:49:06.620Z,17.50
2023-04-29T17:51:58.798Z,17.50
2023-04-29T17:54:43.821Z,17.40
2023-04-29T17:57:16.094Z,17.30
2023-04-29T17:59:48.796Z,17.30
2023-04-29T18:02:43.113Z,17.10
2023-04-29T18:05:28.503Z,17.10
2023-04-29T18:08:12.407Z,17.10
2023-04-29T18:11:00.899Z,17.00
2023-04-29T18:13:49.475Z,17.00
2023-04-29T18:16:22.475Z,16.90
2023-04-29T18:19:07.306Z,16.80
2023-04-29T18:22:01.870Z,16.80
2023-04-29T18:24:35.561Z,16.70
2023-04-29T18:27:19.903Z,16.70
2023-04-29T18:29:56.689Z,16.60
2023-04-29T18:32:28.202Z,16.60
2023-04-29T18:35:15.704Z,16.60
2023-04-29T18:38:04.371Z,16.50
2023-04-29T18:40:38.502Z,16.50
2023-04-29T18:43:25.043Z,16.40
2023-04-29T18:46:13.105Z,16.40
2023-04-29T18:48:44.582Z,16.30
2023-04-29T18:51:50.804Z,16.30
2023-04-29T18:54:31.362Z,16.30
2023-04-29T18:57:12.566Z,16.20
2023-04-29T18:59:49.008Z,16.20
2023-04-29T19:02:27.088Z,16.10
2023-04-29T19:05:06.583Z,16.10
2023-04-29T19:08:16.244Z,16.10
2023-04-29T19:11:04.654Z,16.10
2023-04-29T19:14:01.288Z,16.00
2023-04-29T19:16:57.562Z,16.00
2023-04-29T19:19:29.172Z,16.00
2023-04-29T19:22:16.674Z,16.00
2023-04-29T19:25:09.312Z,15.90
2023-04-29T19:27:51.699Z,15.90
2023-04-29T19:30:24.173Z,15.90
2023-04-29T19:33:15.931Z,15.90
2023-04-29T19:35:55.332Z,15.90
2023-04-29T19:38:52.642Z,15.80
2023-04-29T19:41:50.966Z,15.90
2023-04-29T19:44:38.079Z,15.90
2023-04-29T19:47:28.549Z,15.80
2023-04-29T19:50:05.628Z,15.80
2023-04-29T19:52:42.674Z,15.80
2023-04-29T19:55:39.032Z,15.70
2023-04-29T19:58:17.525Z,15.70
2023-04-29T20:01:11.533Z,15.70
2023-04-29T20:03:51.842Z,15.70
2023-04-29T20:06:38.943Z,15.70
2023-04-29T20:09:11.930Z,15.70
2023-04-29T20:11:56.234Z,15.60
2023-04-29T20:14:46.362Z,15.60
2023-04-29T20:17:37.870Z,15.60
2023-04-29T20:20:26.175Z,15.60
2023-04-29T20:23:07.034Z,15.60
2023-04-29T20:25:40.216Z,15.60
2023-04-29T20:28:12.723Z,15.60
2023-04-29T20:31:05.174Z,15.60
2023-04-29T20:33:46.843Z,15.60
2023-04-29T20:36:17.462Z,15.60
2023-04-29T20:39:07.175Z,15.60
2023-04-29T20:41:38.323Z,15.50
2023-04-29T20:44:21.791Z,15.50
2023-04-29T20:47:14.097Z,15.50
2023-04-29T20:50:00.796Z,15.50
2023-04-29T20:52:43.593Z,15.50
2023-04-29T20:55:16.425Z,15.50
2023-04-29T20:57:55.341Z,15.50
2023-04-29T21:00:37.716Z,15.40
2023-04-29T21:03:29.333Z,15.40
2023-04-29T21:06:19.063Z,15.40
2023-04-29T21:08:59.914Z,15.40
2023-04-29T21:11:46.126Z,15.40
2023-04-29T21:14:30.250Z,15.40
2023-04-29T21:17:04.456Z,15.30
2023-04-29T21:19:37.950Z,15.30
2023-04-29T21:22:16.325Z,15.30
2023-04-29T21:25:01.266Z,15.30
2023-04-29T21:27:50.604Z,15.30
2023-04-29T21:30:31.341Z,15.20
2023-04-29T21:33:22.041Z,15.20
2023-04-29T21:36:15.724Z,15.20
2023-04-29T21:38:49.517Z,15.20
2023-04-29T21:41:52.888Z,15.20
2023-04-29T21:44:32.402Z,15.20
2023-04-29T21:47:04.808Z,15.20
2023-04-29T21:49:59.532Z,15.10
2023-04-29T21:52:52.775Z,15.10
2023-04-29T21:55:27.051Z,15.10
2023-04-29T21:58:08.710Z,15.10
2023-04-29T22:01:00.210Z,15.10
2023-04-29T22:03:39.995Z,15.10
2023-04-29T22:06:11.199Z,15.10
2023-04-29T22:09:02.188Z,15.00
2023-04-29T22:11:44.272Z,15.00
2023-04-29T22:14:33.076Z,15.00
2023-04-29T22:17:23.753Z,15.00
2023-04-29T22:19:58.565Z,15.00
2023-04-29T22:22:30.222Z,15.00
2023-04-29T22:25:22.051Z,15.00
2023-04-29T22:27:52.390Z,15.00
2023-04-29T22:30:43.690Z,15.00
2023-04-29T22:33:21.698Z,15.00
2023-04-29T22:36:11.871Z,15.00
2023-04-29T22:38:49.223Z,14.90
2023-04-29T22:41:28.160Z,14.90
2023-04-29T22:44:04.442Z,14.90
2023-04-29T22:46:36.580Z,14.90
2023-04-29T22:49:17.404Z,14.90
2023-04-29T22:52:01.093Z,14.90
2023-04-29T22:54:47.977Z,14.80
2023-04-29T22:57:23.294Z,14.80
2023-04-29T22:59:58.091Z,14.80
2023-04-29T23:02:43.497Z,14.80
2023-04-29T23:05:17.216Z,14.80
2023-04-29T23:07:49.554Z,14.80
2023-04-29T23:10:38.472Z,14.80
2023-04-29T23:13:39.030Z,14.80
2023-04-29T23:16:17.301Z,14.80
2023-04-29T23:19:05.151Z,14.80
2023-04-29T23:21:38.345Z,14.80
2023-04-29T23:24:33.304Z,14.70
2023-04-29T23:27:05.098Z,14.70
2023-04-29T23:29:55.796Z,14.70
2023-04-29T23:32:49.592Z,14.70
2023-04-29T23:35:35.565Z,14.70
2023-04-29T23:38:23.355Z,14.70
2023-04-29T23:41:25.702Z,14.70
2023-04-29T23:44:04.242Z,14.70
2023-04-29T23:46:49.823Z,14.60
2023-04-29T23:49:31.629Z,14.60
2023-04-29T23:52:12.731Z,14.60
2023-04-29T23:54:48.818Z,14.60
2023-04-29T23:57:23.523Z,14.60
